createdAt,value
2018-03-27T00:00:35.769Z,32.58
2018-03-27T00:03:06.627Z,33.72
2018-03-27T00:05:37.672Z,33.75
2018-03-27T00:08:08.661Z,34.05
2018-03-27T00:10:39.346Z,34.62
2018-03-27T00:13:10.050Z,37.86
2018-03-27T00:15:40.851Z,33.92
2018-03-27T00:18:11.646Z,34.22
2018-03-27T00:20:42.691Z,35.22
2018-03-27T00:23:13.732Z,39.50
2018-03-27T00:25:44.783Z,36.13
2018-03-27T00:28:26.546Z,42.47
2018-03-27T00:31:07.136Z,41.05
2018-03-27T00:33:46.891Z,39.60
2018-03-27T00:36:26.715Z,40.23
2018-03-27T00:39:06.435Z,40.43
2018-03-27T00:44:49.776Z,41.47
2018-03-27T00:47:18.829Z,41.87
2018-03-27T00:49:47.775Z,43.87
2018-03-27T00:52:16.722Z,45.07
2018-03-27T00:54:45.725Z,39.37
2018-03-27T00:57:14.683Z,36.33
2018-03-27T00:59:43.711Z,37.07
2018-03-27T01:02:12.824Z,34.27
2018-03-27T01:04:41.780Z,37.30
2018-03-27T01:07:10.731Z,34.57
2018-03-27T01:09:39.724Z,33.73
2018-03-27T01:12:08.701Z,39.33
2018-03-27T01:14:37.696Z,40.83
2018-03-27T01:17:06.707Z,34.23
2018-03-27T01:19:35.723Z,35.07
2018-03-27T01:22:04.104Z,34.30
2018-03-27T01:24:33.438Z,37.72
2018-03-27T01:27:02.684Z,37.83
2018-03-27T01:29:31.625Z,35.77
2018-03-27T01:32:00.948Z,36.47
2018-03-27T01:34:29.894Z,34.97
2018-03-27T01:36:58.882Z,40.17
2018-03-27T01:39:27.928Z,34.53
2018-03-27T01:41:56.864Z,36.17
2018-03-27T01:44:25.813Z,40.57
2018-03-27T01:46:54.814Z,38.50
2018-03-27T01:49:23.764Z,37.83
2018-03-27T01:51:52.732Z,37.50
2018-03-27T01:54:22.083Z,36.67
2018-03-27T01:56:51.055Z,34.10
2018-03-27T01:59:20.015Z,37.77
2018-03-27T02:01:49.281Z,41.63
2018-03-27T02:04:18.562Z,34.73
2018-03-27T02:06:47.527Z,33.13
2018-03-27T02:09:16.636Z,34.20
2018-03-27T02:11:50.801Z,31.53
2018-03-27T02:14:25.192Z,37.10
2018-03-27T02:16:59.662Z,36.37
2018-03-27T02:19:34.088Z,31.20
2018-03-27T02:22:02.222Z,34.83
2018-03-27T02:24:35.390Z,33.88
2018-03-27T02:27:04.561Z,32.70
2018-03-27T02:29:33.611Z,35.60
2018-03-27T02:32:02.637Z,35.03
2018-03-27T02:34:31.586Z,34.13
2018-03-27T02:37:00.611Z,35.33
2018-03-27T02:39:29.695Z,36.27
2018-03-27T02:41:58.653Z,31.47
2018-03-27T02:44:27.623Z,33.33
2018-03-27T02:46:56.880Z,34.70
2018-03-27T02:49:25.851Z,34.30
2018-03-27T02:51:54.807Z,30.87
2018-03-27T02:54:24.364Z,31.83
2018-03-27T02:56:53.559Z,32.70
2018-03-27T02:59:22.906Z,34.60
2018-03-27T03:01:52.152Z,35.05
2018-03-27T03:04:21.447Z,36.10
2018-03-27T03:06:50.784Z,33.35
2018-03-27T03:09:20.093Z,34.75
2018-03-27T03:11:49.352Z,35.66
2018-03-27T03:14:18.467Z,33.92
2018-03-27T03:16:47.752Z,35.05
2018-03-27T03:19:18.426Z,35.50
2018-03-27T03:21:49.220Z,39.96
2018-03-27T03:24:19.781Z,34.97
2018-03-27T03:26:50.476Z,39.24
2018-03-27T03:29:21.127Z,40.14
2018-03-27T03:31:51.810Z,37.76
2018-03-27T03:34:22.300Z,36.36
2018-03-27T03:36:53.081Z,33.56
2018-03-27T03:39:23.694Z,37.50
2018-03-27T03:41:54.723Z,32.95
2018-03-27T03:44:25.705Z,38.30
2018-03-27T03:46:56.824Z,40.88
2018-03-27T03:49:27.736Z,38.50
2018-03-27T03:51:58.477Z,35.08
2018-03-27T03:54:29.081Z,33.12
2018-03-27T03:56:59.825Z,39.13
2018-03-27T03:59:30.765Z,31.10
2018-03-27T04:02:01.868Z,31.23
2018-03-27T04:04:32.942Z,32.63
2018-03-27T04:07:03.796Z,31.52
2018-03-27T04:09:34.712Z,29.37
2018-03-27T04:12:05.732Z,32.78
2018-03-27T04:14:36.343Z,32.90
2018-03-27T04:17:07.120Z,33.40
2018-03-27T04:19:37.099Z,35.30
2018-03-27T04:22:07.723Z,33.85
2018-03-27T04:24:38.715Z,32.30
2018-03-27T04:27:09.824Z,34.78
2018-03-27T04:29:40.358Z,38.58
2018-03-27T04:32:11.078Z,34.78
2018-03-27T04:34:41.723Z,33.03
2018-03-27T04:37:12.796Z,36.10
2018-03-27T04:39:43.699Z,28.12
2018-03-27T04:42:14.758Z,30.67
2018-03-27T04:44:45.756Z,37.78
2018-03-27T04:47:16.624Z,35.13
2018-03-27T04:49:47.617Z,31.48
2018-03-27T04:52:21.007Z,32.35
2018-03-27T04:54:50.363Z,29.73
2018-03-27T04:57:21.158Z,30.98
2018-03-27T04:59:51.827Z,29.83
2018-03-27T05:02:22.850Z,33.10
2018-03-27T05:04:53.695Z,31.08
2018-03-27T05:07:24.777Z,29.35
2018-03-27T05:09:55.661Z,33.60
2018-03-27T05:12:26.739Z,32.08
2018-03-27T05:14:57.671Z,29.05
2018-03-27T05:17:29.052Z,27.13
2018-03-27T05:20:00.286Z,29.28
2018-03-27T05:22:30.074Z,30.42
2018-03-27T05:25:00.800Z,25.10
2018-03-27T05:27:31.752Z,28.87
2018-03-27T05:30:02.648Z,30.17
2018-03-27T05:32:33.343Z,28.68
2018-03-27T05:35:04.046Z,32.44
2018-03-27T05:37:34.857Z,28.20
2018-03-27T05:40:05.670Z,25.75
2018-03-27T05:42:36.728Z,29.98
2018-03-27T05:45:07.753Z,24.92
2018-03-27T05:47:38.706Z,29.40
2018-03-27T05:50:09.691Z,25.48
2018-03-27T05:52:40.753Z,24.98
2018-03-27T05:55:12.050Z,26.20
2018-03-27T05:57:43.661Z,25.75
2018-03-27T06:00:14.492Z,28.00
2018-03-27T06:02:45.436Z,26.26
2018-03-27T06:05:16.118Z,25.16
2018-03-27T06:07:46.841Z,27.05
2018-03-27T06:10:18.082Z,26.60
2018-03-27T06:12:48.758Z,27.25
2018-03-27T06:15:19.667Z,25.02
2018-03-27T06:17:50.745Z,22.98
2018-03-27T06:20:21.685Z,23.52
2018-03-27T06:22:52.859Z,24.95
2018-03-27T06:25:23.745Z,23.58
2018-03-27T06:27:54.816Z,20.98
2018-03-27T06:30:25.620Z,23.17
2018-03-27T06:32:56.370Z,25.60
2018-03-27T06:35:27.052Z,28.42
2018-03-27T06:37:57.881Z,22.33
2018-03-27T06:40:28.695Z,25.05
2018-03-27T06:42:59.754Z,25.98
2018-03-27T06:45:30.687Z,27.25
2018-03-27T06:48:01.733Z,28.12
2018-03-27T06:50:32.731Z,24.98
2018-03-27T06:53:03.435Z,23.64
2018-03-27T06:55:38.548Z,22.52
2018-03-27T06:58:08.884Z,22.27
2018-03-27T07:00:38.156Z,22.10
2018-03-27T07:03:07.489Z,22.87
2018-03-27T07:05:38.336Z,23.62
2018-03-27T07:08:09.122Z,25.02
2018-03-27T07:10:40.367Z,22.87
2018-03-27T07:13:11.701Z,23.14
2018-03-27T07:15:42.467Z,24.72
2018-03-27T07:18:13.150Z,22.78
2018-03-27T07:20:43.893Z,24.37
2018-03-27T07:23:14.683Z,24.92
2018-03-27T07:25:45.741Z,23.02
2018-03-27T07:28:16.685Z,23.75
2018-03-27T07:30:47.738Z,25.77
2018-03-27T07:33:18.451Z,23.26
2018-03-27T07:35:49.391Z,21.86
2018-03-27T07:38:20.074Z,26.06
2018-03-27T07:40:50.870Z,21.50
2018-03-27T07:43:21.730Z,24.27
2018-03-27T07:45:52.710Z,22.23
2018-03-27T07:48:23.698Z,17.50
2018-03-27T07:50:53.814Z,18.76
2018-03-27T07:53:24.767Z,15.45
2018-03-27T07:55:55.764Z,17.23
2018-03-27T07:58:26.727Z,16.35
2018-03-27T08:00:57.401Z,15.86
2018-03-27T08:03:28.296Z,14.66
2018-03-27T08:05:59.022Z,16.28
2018-03-27T08:08:29.698Z,15.15
2018-03-27T08:11:00.821Z,16.45
2018-03-27T08:13:31.722Z,16.65
2018-03-27T08:16:02.770Z,14.23
2018-03-27T08:18:33.666Z,14.90
2018-03-27T08:21:04.849Z,12.23
2018-03-27T08:23:36.419Z,14.46
2018-03-27T08:26:07.153Z,12.86
2018-03-27T08:28:37.725Z,15.90
2018-03-27T08:31:08.792Z,15.23
2018-03-27T08:33:39.743Z,22.58
2018-03-27T08:36:10.723Z,25.27
2018-03-27T08:38:41.745Z,98.32
2018-03-27T08:41:12.819Z,35.28
2018-03-27T08:43:43.656Z,17.80
2018-03-27T08:46:14.621Z,28.35
2018-03-27T08:48:45.643Z,23.23
2018-03-27T08:51:16.780Z,71.12
2018-03-27T08:53:47.987Z,21.23
2018-03-27T08:56:18.767Z,24.45
2018-03-27T08:58:49.758Z,11.68
2018-03-27T09:01:20.732Z,13.68
2018-03-27T09:03:51.793Z,80.97
2018-03-27T09:06:22.790Z,58.08
2018-03-27T09:08:53.697Z,57.00
2018-03-27T09:11:24.817Z,43.22
2018-03-27T09:13:55.699Z,27.30
2018-03-27T09:16:26.813Z,26.70
2018-03-27T09:18:57.680Z,29.33
2018-03-27T09:21:28.731Z,33.17
2018-03-27T09:23:59.668Z,23.05
2018-03-27T09:26:30.731Z,16.12
2018-03-27T09:29:06.803Z,24.90
2018-03-27T09:31:36.131Z,21.37
2018-03-27T09:34:05.400Z,22.65
2018-03-27T09:36:35.105Z,22.85
2018-03-27T09:39:05.387Z,19.25
2018-03-27T09:41:36.693Z,17.65
2018-03-27T09:44:07.751Z,20.12
2018-03-27T09:46:38.769Z,23.20
2018-03-27T09:49:09.745Z,17.80
2018-03-27T09:51:40.640Z,17.45
2018-03-27T09:54:11.693Z,21.37
2018-03-27T09:56:42.695Z,18.58
2018-03-27T09:59:13.606Z,14.73
2018-03-27T10:01:44.197Z,15.08
2018-03-27T10:04:14.938Z,13.02
2018-03-27T10:06:45.657Z,15.05
2018-03-27T10:09:16.750Z,18.48
2018-03-27T10:11:47.657Z,18.25
2018-03-27T10:14:18.338Z,16.38
2018-03-27T10:16:49.010Z,15.32
2018-03-27T10:19:19.766Z,13.95
2018-03-27T10:21:50.651Z,14.30
2018-03-27T10:24:21.704Z,16.23
2018-03-27T10:26:52.726Z,14.10
2018-03-27T10:29:23.764Z,11.57
2018-03-27T10:31:54.434Z,13.48
2018-03-27T10:34:25.139Z,13.64
2018-03-27T10:36:55.824Z,12.80
2018-03-27T10:39:26.722Z,11.55
2018-03-27T10:41:57.682Z,15.27
2018-03-27T10:44:28.749Z,10.68
2018-03-27T10:46:59.614Z,110.03
2018-03-27T10:49:30.644Z,102.35
2018-03-27T10:52:01.654Z,57.17
2018-03-27T10:54:32.715Z,47.83
2018-03-27T10:57:03.839Z,59.38
2018-03-27T10:59:34.767Z,42.22
2018-03-27T11:02:05.669Z,11.32
2018-03-27T11:04:37.308Z,8.63
2018-03-27T11:07:08.020Z,108.64
2018-03-27T11:09:38.850Z,12.90
2018-03-27T11:12:09.338Z,7.28
2018-03-27T11:14:40.059Z,8.46
2018-03-27T11:17:10.765Z,10.40
2018-03-27T11:19:41.663Z,8.68
2018-03-27T11:22:12.628Z,8.75
2018-03-27T11:24:43.954Z,7.55
2018-03-27T11:27:14.708Z,8.27
2018-03-27T11:29:45.820Z,11.20
2018-03-27T11:32:18.327Z,15.32
2018-03-27T11:34:48.082Z,12.27
2018-03-27T11:37:18.071Z,14.75
2018-03-27T11:39:48.822Z,16.37
2018-03-27T11:42:19.322Z,13.12
2018-03-27T11:44:49.856Z,11.43
2018-03-27T11:47:20.687Z,14.87
2018-03-27T11:49:51.775Z,13.88
2018-03-27T11:52:22.631Z,9.88
2018-03-27T11:54:53.578Z,11.45
2018-03-27T11:57:24.590Z,9.27
2018-03-27T11:59:55.658Z,11.43
2018-03-27T12:02:26.311Z,6.98
2018-03-27T12:04:57.139Z,7.80
2018-03-27T12:07:27.806Z,7.80
2018-03-27T12:09:58.887Z,7.55
2018-03-27T12:12:29.676Z,8.38
2018-03-27T12:15:00.727Z,7.70
2018-03-27T12:17:31.627Z,7.22
2018-03-27T12:20:02.720Z,8.32
2018-03-27T12:22:33.706Z,6.68
2018-03-27T12:25:04.803Z,6.87
2018-03-27T12:27:35.711Z,6.75
2018-03-27T12:30:06.840Z,9.52
2018-03-27T12:32:37.712Z,7.75
2018-03-27T12:35:08.801Z,7.25
2018-03-27T12:37:39.714Z,74.82
2018-03-27T12:40:10.766Z,16.25
2018-03-27T12:42:41.658Z,6.00
2018-03-27T12:45:12.306Z,5.60
2018-03-27T12:47:43.012Z,8.30
2018-03-27T12:50:13.784Z,7.25
2018-03-27T12:52:44.852Z,14.38
2018-03-27T12:55:15.768Z,9.30
2018-03-27T12:57:46.753Z,9.45
2018-03-27T13:00:17.726Z,16.42
2018-03-27T13:02:48.749Z,19.85
2018-03-27T13:05:19.794Z,8.60
2018-03-27T13:07:57.816Z,9.63
2018-03-27T13:10:27.219Z,5.82
2018-03-27T13:12:56.457Z,11.15
2018-03-27T13:15:25.873Z,50.23
2018-03-27T13:17:55.334Z,14.17
2018-03-27T13:20:26.020Z,12.42
2018-03-27T13:22:56.459Z,10.92
2018-03-27T13:25:26.973Z,11.38
2018-03-27T13:27:57.803Z,10.05
2018-03-27T13:30:28.777Z,8.68
2018-03-27T13:32:59.706Z,9.27
2018-03-27T13:35:32.263Z,8.40
2018-03-27T13:38:02.191Z,10.43
2018-03-27T13:40:32.715Z,8.73
2018-03-27T13:43:03.778Z,8.45
2018-03-27T13:45:34.725Z,9.25
2018-03-27T13:48:05.119Z,7.85
2018-03-27T13:50:36.702Z,13.92
2018-03-27T13:53:07.786Z,17.23
2018-03-27T13:55:38.692Z,12.30
2018-03-27T13:58:09.394Z,10.82
2018-03-27T14:00:40.024Z,20.98
2018-03-27T14:03:10.826Z,9.23
2018-03-27T14:05:41.927Z,7.70
2018-03-27T14:08:12.761Z,10.13
2018-03-27T14:10:43.711Z,15.88
2018-03-27T14:13:14.446Z,13.00
2018-03-27T14:15:45.047Z,14.64
2018-03-27T14:18:15.158Z,14.48
2018-03-27T14:20:45.707Z,14.07
2018-03-27T14:23:16.772Z,16.40
2018-03-27T14:25:47.395Z,15.26
2018-03-27T14:28:18.079Z,17.08
2018-03-27T14:30:48.763Z,15.65
2018-03-27T14:33:19.779Z,14.60
2018-03-27T14:35:50.704Z,17.67
2018-03-27T14:38:21.768Z,15.73
2018-03-27T14:40:52.707Z,15.77
2018-03-27T14:43:23.804Z,16.85
2018-03-27T14:45:54.672Z,22.45
2018-03-27T14:48:25.833Z,22.45
2018-03-27T14:50:56.795Z,21.33
2018-03-27T14:53:27.749Z,29.17
2018-03-27T14:55:58.754Z,33.33
2018-03-27T14:58:29.731Z,29.63
2018-03-27T15:01:00.806Z,23.55
2018-03-27T15:03:31.771Z,18.65
2018-03-27T15:06:02.674Z,21.30
2018-03-27T15:08:33.839Z,19.37
2018-03-27T15:11:04.375Z,21.98
2018-03-27T15:13:35.111Z,28.18
2018-03-27T15:16:05.768Z,31.52
2018-03-27T15:18:36.787Z,37.08
2018-03-27T15:21:07.655Z,37.70
2018-03-27T15:23:38.392Z,24.22
2018-03-27T15:26:09.084Z,28.68
2018-03-27T15:28:39.900Z,20.45
2018-03-27T15:31:10.947Z,24.12
2018-03-27T15:33:41.889Z,22.02
2018-03-27T15:36:12.665Z,35.38
2018-03-27T15:38:43.747Z,33.13
2018-03-27T15:41:14.708Z,39.70
2018-03-27T15:43:46.648Z,32.38
2018-03-27T15:46:17.313Z,30.38
2018-03-27T15:48:48.116Z,27.52
2018-03-27T15:51:18.886Z,23.85
2018-03-27T15:53:49.838Z,25.00
2018-03-27T15:56:20.752Z,27.17
2018-03-27T15:58:51.732Z,23.62
2018-03-27T16:01:22.786Z,21.42
2018-03-27T16:03:53.756Z,23.52
2018-03-27T16:06:24.872Z,21.85
2018-03-27T16:08:56.807Z,25.00
2018-03-27T16:11:27.350Z,23.70
2018-03-27T16:13:58.182Z,24.60
2018-03-27T16:16:28.849Z,26.45
2018-03-27T16:18:59.740Z,32.10
2018-03-27T16:21:30.675Z,24.83
2018-03-27T16:24:01.776Z,24.48
2018-03-27T16:26:32.768Z,20.17
2018-03-27T16:29:03.807Z,24.30
2018-03-27T16:31:35.247Z,28.78
2018-03-27T16:34:05.640Z,28.95
2018-03-27T16:36:36.642Z,34.88
2018-03-27T16:39:07.751Z,34.42
2018-03-27T16:41:38.728Z,27.23
2018-03-27T16:44:09.907Z,26.15
2018-03-27T16:46:40.718Z,23.08
2018-03-27T16:49:12.630Z,22.35
2018-03-27T16:51:43.293Z,29.16
2018-03-27T16:54:13.904Z,44.83
2018-03-27T16:56:45.177Z,38.05
2018-03-27T16:59:15.057Z,31.87
2018-03-27T17:01:45.908Z,34.42
2018-03-27T17:04:16.779Z,49.28
2018-03-27T17:06:47.833Z,42.28
2018-03-27T17:09:18.912Z,36.25
2018-03-27T17:11:49.340Z,39.10
2018-03-27T17:14:20.035Z,48.24
2018-03-27T17:16:51.364Z,41.10
2018-03-27T17:19:22.485Z,44.48
2018-03-27T17:21:53.157Z,55.56
2018-03-27T17:24:23.164Z,71.10
2018-03-27T17:26:53.786Z,79.35
2018-03-27T17:29:24.909Z,73.30
2018-03-27T17:31:55.636Z,69.56
2018-03-27T17:37:11.599Z,61.87
2018-03-27T17:39:41.053Z,61.60
2018-03-27T17:42:10.347Z,58.65
2018-03-27T17:44:39.618Z,55.45
2018-03-27T17:47:09.034Z,58.30
2018-03-27T17:49:38.367Z,62.65
2018-03-27T17:52:07.742Z,69.13
2018-03-27T17:54:37.372Z,62.15
2018-03-27T17:57:06.861Z,65.03
2018-03-27T17:59:36.115Z,80.82
2018-03-27T18:02:05.450Z,124.73
2018-03-27T18:04:35.262Z,184.90
2018-03-27T18:07:05.669Z,216.73
2018-03-27T18:09:37.272Z,219.62
2018-03-27T18:12:07.947Z,205.90
2018-03-27T18:14:38.750Z,196.77
2018-03-27T18:17:09.846Z,213.20
2018-03-27T18:19:40.507Z,218.73
2018-03-27T18:22:11.621Z,177.68
2018-03-27T18:24:42.667Z,158.60
2018-03-27T18:27:13.760Z,140.40
2018-03-27T18:29:45.260Z,132.07
2018-03-27T18:32:15.906Z,122.82
2018-03-27T18:34:46.848Z,118.70
2018-03-27T18:37:17.948Z,142.98
2018-03-27T18:39:48.763Z,128.68
2018-03-27T18:42:21.517Z,142.18
2018-03-27T18:44:50.932Z,140.98
2018-03-27T18:47:21.535Z,143.02
2018-03-27T18:49:52.218Z,147.94
2018-03-27T18:52:22.914Z,168.23
2018-03-27T18:54:53.720Z,172.43
2018-03-27T18:57:24.535Z,157.85
2018-03-27T18:59:55.552Z,179.82
2018-03-27T19:02:26.652Z,194.57
2018-03-27T19:04:57.690Z,206.15
2018-03-27T19:07:28.920Z,184.07
2018-03-27T19:09:59.925Z,142.15
2018-03-27T19:12:30.878Z,152.18
2018-03-27T19:15:01.754Z,130.93
2018-03-27T19:17:32.784Z,119.82
2018-03-27T19:20:03.760Z,118.93
2018-03-27T19:22:34.796Z,124.38
2018-03-27T19:25:05.402Z,126.32
2018-03-27T19:27:36.203Z,132.84
2018-03-27T19:30:06.866Z,141.88
2018-03-27T19:32:37.378Z,158.80
2018-03-27T19:35:08.096Z,192.44
2018-03-27T19:37:38.873Z,247.95
2018-03-27T19:40:09.384Z,200.02
2018-03-27T19:42:40.117Z,139.40
2018-03-27T19:45:10.837Z,117.70
2018-03-27T19:47:41.858Z,101.20
2018-03-27T19:50:12.817Z,130.65
2018-03-27T19:52:43.407Z,159.46
2018-03-27T19:55:14.114Z,114.30
2018-03-27T19:57:44.952Z,95.68
2018-03-27T20:00:15.366Z,119.30
2018-03-27T20:02:46.168Z,123.76
2018-03-27T20:05:16.768Z,128.05
2018-03-27T20:07:47.472Z,129.00
2018-03-27T20:10:18.234Z,109.38
2018-03-27T20:12:48.861Z,95.50
2018-03-27T20:15:24.814Z,88.45
2018-03-27T20:17:54.143Z,87.57
2018-03-27T20:20:23.427Z,78.60
2018-03-27T20:22:52.717Z,72.75
2018-03-27T20:25:22.501Z,67.40
2018-03-27T20:27:52.155Z,65.45
2018-03-27T20:30:22.823Z,54.20
2018-03-27T20:32:53.860Z,61.58
2018-03-27T20:35:24.464Z,56.34
2018-03-27T20:37:55.147Z,55.30
2018-03-27T20:40:25.932Z,60.47
2018-03-27T20:42:56.686Z,64.47
2018-03-27T20:45:27.502Z,85.18
2018-03-27T20:47:58.552Z,86.35
2018-03-27T20:50:29.622Z,76.22
2018-03-27T20:53:00.715Z,108.57
2018-03-27T20:55:31.911Z,81.55
2018-03-27T20:58:02.811Z,89.78
2018-03-27T21:00:33.753Z,105.20
2018-03-27T21:03:04.381Z,107.10
2018-03-27T21:05:36.242Z,76.76
2018-03-27T21:08:06.872Z,77.90
2018-03-27T21:10:37.999Z,72.75
2018-03-27T21:13:08.730Z,73.18
2018-03-27T21:15:39.799Z,83.65
2018-03-27T21:18:10.722Z,77.90
2018-03-27T21:20:41.847Z,78.87
2018-03-27T21:23:12.728Z,87.90
2018-03-27T21:25:43.799Z,86.70
2018-03-27T21:28:14.645Z,88.65
2018-03-27T21:30:45.768Z,84.43
2018-03-27T21:33:16.658Z,99.18
2018-03-27T21:35:47.369Z,90.78
2018-03-27T21:38:17.472Z,92.72
2018-03-27T21:40:48.204Z,95.20
2018-03-27T21:43:18.798Z,124.75
2018-03-27T21:45:49.806Z,126.30
2018-03-27T21:48:20.752Z,122.00
2018-03-27T21:50:51.140Z,104.80
2018-03-27T21:53:21.840Z,94.00
2018-03-27T21:55:52.716Z,101.10
2018-03-27T21:58:23.779Z,140.23
2018-03-27T22:00:54.868Z,124.05
2018-03-27T22:03:25.151Z,113.37
2018-03-27T22:05:56.750Z,95.20
2018-03-27T22:08:27.590Z,93.43
2018-03-27T22:10:58.594Z,96.60
2018-03-27T22:13:29.457Z,85.20
2018-03-27T22:16:00.408Z,84.45
2018-03-27T22:18:31.348Z,78.40
2018-03-27T22:21:02.371Z,78.45
2018-03-27T22:23:33.375Z,69.20
2018-03-27T22:26:04.450Z,69.87
2018-03-27T22:28:35.341Z,72.90
2018-03-27T22:31:06.883Z,74.72
2018-03-27T22:33:37.655Z,69.85
2018-03-27T22:36:08.726Z,72.47
2018-03-27T22:38:39.745Z,67.93
2018-03-27T22:41:10.904Z,73.20
2018-03-27T22:43:41.704Z,70.93
2018-03-27T22:46:12.741Z,68.22
2018-03-27T22:48:49.358Z,79.50
2018-03-27T22:51:18.923Z,77.93
2018-03-27T22:53:48.208Z,68.05
2018-03-27T22:56:17.466Z,72.03
2018-03-27T22:58:48.174Z,71.62
2018-03-27T23:01:18.438Z,72.45
2018-03-27T23:03:49.255Z,75.54
2018-03-27T23:06:19.833Z,71.57
2018-03-27T23:08:50.764Z,70.40
2018-03-27T23:11:21.802Z,76.75
2018-03-27T23:13:52.488Z,70.92
2018-03-27T23:16:22.980Z,69.44
2018-03-27T23:18:53.806Z,73.22
2018-03-27T23:21:24.770Z,74.95
2018-03-27T23:23:55.821Z,69.62
2018-03-27T23:26:26.416Z,73.52
2018-03-27T23:28:57.143Z,80.04
2018-03-27T23:31:27.793Z,70.38
2018-03-27T23:33:58.492Z,74.48
2018-03-27T23:36:29.146Z,66.58
2018-03-27T23:38:59.855Z,66.60
2018-03-27T23:41:30.401Z,66.82
2018-03-27T23:44:01.090Z,64.26
2018-03-27T23:46:31.008Z,66.72
2018-03-27T23:49:02.032Z,68.18
2018-03-27T23:51:32.701Z,69.22
2018-03-27T23:54:03.752Z,71.07
2018-03-27T23:56:34.687Z,73.75
2018-03-27T23:59:05.795Z,70.10
